Time;durP1;ratioP1;P1;durP2;ratioP2;P2;SDS_P1;SDS_P2;PMS_P1;PMS_P2;Temp;Humidity;BMP_temperature;BMP_pressure;BME280_temperature;BME280_humidity;BME280_pressure;Samples;Min_cycle;Max_cycle;Signal;HPM_P1;HPM_P2
2021/06/15 00:00:42;;;;;;;11.65;3.92;;;16.00;77.50;;;;;;5107894;28;20096;-67
2021/06/15 00:03:20;;;;;;;11.38;4.05;;;16.00;77.80;;;;;;5106268;28;20599;-69
2021/06/15 00:05:46;;;;;;;8.63;3.60;;;17.20;79.80;;;;;;5108893;28;20094;-68
2021/06/15 00:08:13;;;;;;;8.95;3.78;;;17.30;79.20;;;;;;5107067;28;20084;-68
2021/06/15 00:10:42;;;;;;;9.88;3.78;;;15.90;78.30;;;;;;5106178;28;20170;-68
2021/06/15 00:13:10;;;;;;;8.13;3.55;;;15.80;79.20;;;;;;5109454;28;20144;-67
2021/06/15 00:15:37;;;;;;;9.25;3.75;;;15.80;79.00;;;;;;5104107;28;20088;-68
2021/06/15 00:18:03;;;;;;;13.65;3.80;;;15.70;78.80;;;;;;5099814;28;21072;-68
2021/06/15 00:20:29;;;;;;;10.48;3.58;;;15.60;78.60;;;;;;5099819;27;20464;-68
2021/06/15 00:22:56;;;;;;;7.60;3.28;;;15.60;78.50;;;;;;5108181;28;20460;-68
2021/06/15 00:25:22;;;;;;;12.50;3.67;;;15.60;78.60;;;;;;5103401;28;20099;-68
2021/06/15 00:27:49;;;;;;;10.65;3.03;;;15.70;78.80;;;;;;5099288;28;20093;-68
2021/06/15 00:30:20;;;;;;;7.93;3.50;;;15.60;79.60;;;;;;5105212;28;20088;-68
2021/06/15 00:32:55;;;;;;;10.07;3.88;;;15.60;79.20;;;;;;5107399;28;20115;-67
2021/06/15 00:35:41;;;;;;;16.70;3.40;;;15.50;79.20;;;;;;5102554;28;20098;-67
2021/06/15 00:38:10;;;;;;;10.23;3.13;;;16.80;80.00;;;;;;5104827;28;20095;-67
2021/06/15 00:40:43;;;;;;;9.60;3.42;;;15.50;79.30;;;;;;5101155;28;20157;-67
2021/06/15 00:43:08;;;;;;;9.75;3.45;;;16.30;80.10;;;;;;5108773;28;20142;-68
2021/06/15 00:45:34;;;;;;;8.10;3.75;;;15.50;80.90;;;;;;5108477;28;20080;-67
2021/06/15 00:48:01;;;;;;;10.45;3.20;;;15.30;79.50;;;;;;5102908;28;20096;-67
2021/06/15 00:50:28;;;;;;;8.45;3.35;;;15.40;79.80;;;;;;5102989;28;20175;-68
2021/06/15 00:52:55;;;;;;;6.80;2.85;;;15.40;79.70;;;;;;5096088;28;20138;-68
2021/06/15 00:55:26;;;;;;;8.05;2.80;;;15.40;80.50;;;;;;5102772;28;20098;-67
2021/06/15 00:57:52;;;;;;;8.27;2.75;;;15.60;81.40;;;;;;5100576;28;20545;-67
2021/06/15 01:00:19;;;;;;;9.15;3.00;;;15.40;80.90;;;;;;5105352;28;20526;-68
2021/06/15 01:02:46;;;;;;;8.82;3.40;;;15.50;80.00;;;;;;5107967;28;20135;-68
2021/06/15 01:05:14;;;;;;;8.98;2.80;;;15.40;80.10;;;;;;5107746;28;20157;-68
2021/06/15 01:07:41;;;;;;;12.25;2.80;;;15.50;79.90;;;;;;5108525;28;20080;-67
2021/06/15 01:10:16;;;;;;;10.20;2.70;;;15.50;80.10;;;;;;5108423;28;20171;-69
2021/06/15 01:13:02;;;;;;;8.98;3.15;;;15.70;80.80;;;;;;5100542;28;20540;-68
2021/06/15 01:15:55;;;;;;;9.52;2.70;;;15.40;80.40;;;;;;5094372;28;20190;-68
2021/06/15 01:18:24;;;;;;;4.95;2.40;;;15.40;79.80;;;;;;5103599;28;20088;-68
2021/06/15 01:20:57;;;;;;;11.05;2.88;;;15.50;79.80;;;;;;5107940;28;20103;-67
2021/06/15 01:23:41;;;;;;;11.55;3.53;;;15.50;80.20;;;;;;5109945;28;20096;-68
2021/06/15 01:26:44;;;;;;;8.38;2.40;;;15.40;80.00;;;;;;5110264;28;20542;-69
2021/06/15 01:29:19;;;;;;;9.68;3.00;;;15.40;79.70;;;;;;5107007;28;20088;-68
2021/06/15 01:31:53;;;;;;;9.48;2.78;;;15.80;79.30;;;;;;5112639;28;20098;-67
2021/06/15 01:34:31;;;;;;;7.93;3.55;;;15.50;79.40;;;;;;5112546;28;20133;-67
2021/06/15 01:36:59;;;;;;;7.55;2.70;;;15.40;79.40;;;;;;5099130;28;20092;-68
2021/06/15 01:39:28;;;;;;;9.48;2.75;;;15.30;79.40;;;;;;5105726;28;20537;-67
2021/06/15 01:42:02;;;;;;;9.80;3.22;;;15.60;79.70;;;;;;5109832;28;20173;-68
2021/06/15 01:44:32;;;;;;;13.23;3.13;;;15.30;79.70;;;;;;5098404;28;20088;-67
2021/06/15 01:47:10;;;;;;;14.80;3.15;;;14.60;80.90;;;;;;5108688;28;20114;-68
2021/06/15 01:49:52;;;;;;;13.40;3.00;;;16.00;80.30;;;;;;5109652;28;20161;-68
2021/06/15 01:52:22;;;;;;;7.78;2.53;;;15.50;80.70;;;;;;5113724;28;20192;-68
2021/06/15 01:54:49;;;;;;;14.93;3.25;;;15.00;80.60;;;;;;5108927;28;20198;-69
2021/06/15 01:57:19;;;;;;;16.63;3.83;;;15.10;80.20;;;;;;5107015;28;20089;-68
2021/06/15 01:59:48;;;;;;;8.75;2.80;;;15.10;80.20;;;;;;5101440;28;20107;-67
2021/06/15 02:02:15;;;;;;;13.50;2.80;;;15.10;80.20;;;;;;5111456;28;20115;-67
2021/06/15 02:04:44;;;;;;;9.73;2.58;;;15.00;80.30;;;;;;5107228;28;20118;-68
2021/06/15 02:07:15;;;;;;;9.13;3.00;;;14.50;81.70;;;;;;5109520;28;20171;-68
2021/06/15 02:09:45;;;;;;;9.13;2.63;;;13.00;81.00;;;;;;5102981;28;20088;-69
2021/06/15 02:12:11;;;;;;;13.27;2.83;;;14.40;81.30;;;;;;5111822;28;20124;-68
2021/06/15 02:14:58;;;;;;;12.40;2.90;;;14.90;82.30;;;;;;5107586;28;20123;-67
2021/06/15 02:17:26;;;;;;;12.10;3.22;;;14.90;81.00;;;;;;5102982;28;20677;-67
2021/06/15 02:19:54;;;;;;;11.52;3.13;;;14.50;82.00;;;;;;5109229;28;21913;-68
2021/06/15 02:22:22;;;;;;;14.68;3.30;;;14.70;83.50;;;;;;5111109;28;20567;-68
2021/06/15 02:25:09;;;;;;;8.43;2.80;;;14.80;82.80;;;;;;5108817;28;20461;-68
2021/06/15 02:27:56;;;;;;;6.45;2.88;;;14.70;82.70;;;;;;5110449;28;20153;-67
2021/06/15 02:30:23;;;;;;;10.43;2.90;;;14.70;82.80;;;;;;5110327;28;20100;-68
2021/06/15 02:32:53;;;;;;;8.52;3.20;;;14.60;83.00;;;;;;5111355;28;20099;-68
2021/06/15 02:35:21;;;;;;;;;;;14.70;82.50;;;;;;5108995;28;20172;-66
2021/06/15 02:38:09;;;;;;;13.20;3.63;;;14.70;83.00;;;;;;5110125;28;19979;-66
2021/06/15 02:40:36;;;;;;;12.00;3.17;;;14.80;85.50;;;;;;5102567;28;20523;-68
2021/06/15 02:43:02;;;;;;;10.35;3.08;;;14.70;83.80;;;;;;5112173;28;20095;-67
2021/06/15 02:45:31;;;;;;;11.63;3.20;;;14.70;83.50;;;;;;5109694;28;20091;-67
2021/06/15 02:48:03;;;;;;;;;;;14.70;82.80;;;;;;5106304;28;20081;-68
2021/06/15 02:50:31;;;;;;;10.38;2.78;;;14.70;84.60;;;;;;5111235;28;19972;-68
2021/06/15 02:53:00;;;;;;;10.18;2.92;;;15.60;85.40;;;;;;5105800;28;20092;-68
2021/06/15 02:55:39;;;;;;;16.30;3.08;;;14.70;82.40;;;;;;5110510;28;20179;-68
2021/06/15 02:58:05;;;;;;;13.88;3.50;;;14.60;84.00;;;;;;5107631;28;20420;-67
2021/06/15 03:00:32;;;;;;;7.50;2.60;;;15.80;83.60;;;;;;5126858;27;20100;-67
2021/06/15 03:02:58;;;;;;;12.85;3.13;;;14.70;83.00;;;;;;5109230;28;20120;-68
2021/06/15 03:05:25;;;;;;;9.43;2.83;;;14.90;83.60;;;;;;5109783;28;20088;-68
2021/06/15 03:07:51;;;;;;;11.68;3.45;;;15.80;84.00;;;;;;5106903;28;20365;-68
2021/06/15 03:10:19;;;;;;;10.48;3.25;;;14.60;83.30;;;;;;5106673;28;20093;-67
2021/06/15 03:12:45;;;;;;;9.60;3.35;;;;;;;;;;5095194;28;20089;-67
2021/06/15 03:15:13;;;;;;;8.60;2.90;;;14.80;83.60;;;;;;5110550;28;20092;-68
2021/06/15 03:17:49;;;;;;;10.17;3.17;;;14.60;83.70;;;;;;5108588;28;20165;-67
2021/06/15 03:20:16;;;;;;;8.70;3.00;;;14.60;84.00;;;;;;5107032;28;20516;-68
2021/06/15 03:22:55;;;;;;;9.80;2.90;;;14.60;83.50;;;;;;5103439;28;20179;-68
2021/06/15 03:25:25;;;;;;;11.65;3.42;;;14.60;83.40;;;;;;5097591;28;20096;-68
2021/06/15 03:28:00;;;;;;;9.23;3.05;;;14.60;84.10;;;;;;5099478;28;20092;-68
2021/06/15 03:30:47;;;;;;;8.45;2.80;;;15.10;84.90;;;;;;5107220;27;20502;-67
2021/06/15 03:33:27;;;;;;;9.93;2.85;;;14.60;84.30;;;;;;5110856;28;20084;-68
2021/06/15 03:35:59;;;;;;;8.23;2.85;;;14.60;83.80;;;;;;5109131;28;20088;-67
2021/06/15 03:38:30;;;;;;;9.23;3.13;;;15.10;84.50;;;;;;5110324;28;20084;-68
2021/06/15 03:40:58;;;;;;;10.05;3.50;;;15.20;85.80;;;;;;5107810;28;20177;-68
2021/06/15 03:43:26;;;;;;;9.80;3.20;;;13.90;83.80;;;;;;5110109;28;20092;-67
2021/06/15 03:46:09;;;;;;;7.90;2.75;;;14.60;84.20;;;;;;5108830;28;20187;-68
2021/06/15 03:48:47;;;;;;;10.65;3.13;;;14.60;83.80;;;;;;5102816;28;20553;-68
2021/06/15 03:51:35;;;;;;;10.77;3.20;;;16.10;84.70;;;;;;5108040;27;20103;-68
2021/06/15 03:54:09;;;;;;;11.68;3.22;;;14.60;84.80;;;;;;5102185;28;20109;-68
2021/06/15 03:56:46;;;;;;;11.77;3.55;;;14.60;83.90;;;;;;5096500;28;20084;-68
2021/06/15 03:59:16;;;;;;;10.55;2.70;;;14.70;84.80;;;;;;5103616;28;20088;-67
2021/06/15 04:01:45;;;;;;;12.80;3.05;;;14.70;84.40;;;;;;5099546;28;20092;-67
2021/06/15 04:04:15;;;;;;;8.02;2.95;;;15.30;85.40;;;;;;5100268;28;20092;-68
2021/06/15 04:06:49;;;;;;;10.45;2.90;;;14.70;85.10;;;;;;5098765;28;20114;-67
2021/06/15 04:09:20;;;;;;;6.85;2.80;;;13.60;85.20;;;;;;5106847;28;20102;-68
2021/06/15 04:11:47;;;;;;;10.30;3.22;;;14.80;85.10;;;;;;5104548;28;20096;-68
2021/06/15 04:14:15;;;;;;;10.50;3.10;;;14.80;85.30;;;;;;5102798;28;20112;-67
2021/06/15 04:16:42;;;;;;;13.05;2.90;;;14.50;85.40;;;;;;5105241;28;20099;-68
2021/06/15 04:19:13;;;;;;;10.63;3.13;;;14.70;84.10;;;;;;5103498;28;20090;-67
2021/06/15 04:21:44;;;;;;;10.45;3.13;;;14.80;84.30;;;;;;5103510;28;20099;-67
2021/06/15 04:24:12;;;;;;;13.23;3.60;;;15.20;84.90;;;;;;5107720;28;20084;-68
2021/06/15 04:26:39;;;;;;;9.53;2.77;;;15.30;85.10;;;;;;5107969;28;20088;-68
2021/06/15 04:29:10;;;;;;;8.38;3.15;;;14.90;84.40;;;;;;5109275;28;20342;-67
2021/06/15 04:31:39;;;;;;;20.88;4.18;;;15.00;84.30;;;;;;5105340;28;20135;-68
2021/06/15 04:34:07;;;;;;;14.27;3.35;;;15.00;84.40;;;;;;5106787;28;20092;-67
2021/06/15 04:36:43;;;;;;;10.20;3.00;;;15.00;84.10;;;;;;5108670;28;20156;-66
2021/06/15 04:39:35;;;;;;;9.15;2.95;;;16.20;85.70;;;;;;5105970;28;20195;-67
2021/06/15 04:42:05;;;;;;;9.90;3.00;;;15.10;84.50;;;;;;5108340;28;20636;-68
2021/06/15 04:44:36;;;;;;;10.05;3.20;;;15.20;84.20;;;;;;5107795;28;20460;-67
2021/06/15 04:47:12;;;;;;;12.18;3.28;;;16.20;85.30;;;;;;5102457;28;20864;-67
2021/06/15 04:49:55;;;;;;;11.32;3.47;;;15.30;84.20;;;;;;5106562;28;20088;-67
2021/06/15 04:52:25;;;;;;;9.80;3.25;;;15.20;84.70;;;;;;5105696;28;20092;-68
2021/06/15 04:54:52;;;;;;;9.73;3.50;;;15.30;83.90;;;;;;5103461;28;20092;-69
2021/06/15 04:57:24;;;;;;;9.95;2.88;;;15.30;83.80;;;;;;5106625;28;20096;-68
2021/06/15 04:59:54;;;;;;;15.13;3.33;;;15.30;83.70;;;;;;5103692;28;20084;-67
2021/06/15 05:02:22;;;;;;;12.60;2.95;;;15.40;83.60;;;;;;5098970;28;20113;-69
2021/06/15 05:04:49;;;;;;;10.07;3.45;;;15.50;83.30;;;;;;5106238;28;20110;-69
2021/06/15 05:07:23;;;;;;;13.70;3.17;;;15.20;82.00;;;;;;5099151;28;20185;-69
2021/06/15 05:10:02;;;;;;;11.80;3.13;;;15.60;82.50;;;;;;5104771;28;20098;-67
2021/06/15 05:12:42;;;;;;;13.48;3.00;;;15.60;82.40;;;;;;5098884;28;20133;-69
2021/06/15 05:15:15;;;;;;;10.65;3.20;;;15.70;82.30;;;;;;5105059;28;20461;-68
2021/06/15 05:17:46;;;;;;;10.68;3.40;;;15.70;81.90;;;;;;5108905;28;20093;-67
2021/06/15 05:20:14;;;;;;;11.60;3.30;;;16.40;82.70;;;;;;5107996;28;20108;-68
2021/06/15 05:22:45;;;;;;;11.55;3.70;;;15.70;82.30;;;;;;5106293;28;20088;-68
2021/06/15 05:25:11;;;;;;;15.25;4.38;;;15.80;81.10;;;;;;5107165;28;20084;-69
2021/06/15 05:27:37;;;;;;;12.77;3.40;;;17.30;79.90;;;;;;5106477;28;20133;-68
2021/06/15 05:30:05;;;;;;;13.65;3.60;;;15.60;78.10;;;;;;5106603;28;20092;-68
2021/06/15 05:32:32;;;;;;;11.25;4.25;;;15.90;79.10;;;;;;5101413;28;20093;-69
2021/06/15 05:34:59;;;;;;;19.13;4.50;;;16.00;78.80;;;;;;5080934;28;20546;-69
2021/06/15 05:37:25;;;;;;;11.27;3.35;;;16.00;78.80;;;;;;5105951;28;20088;-68
2021/06/15 05:39:52;;;;;;;13.45;3.95;;;16.00;78.40;;;;;;5106580;28;20483;-67
2021/06/15 05:42:18;;;;;;;13.90;4.05;;;16.10;78.30;;;;;;5097816;28;20095;-69
2021/06/15 05:44:44;;;;;;;15.00;3.80;;;16.10;78.10;;;;;;5108633;28;20092;-67
2021/06/15 05:47:10;;;;;;;13.45;4.07;;;16.20;77.60;;;;;;5100840;28;20095;-69
2021/06/15 05:49:37;;;;;;;12.55;3.90;;;16.20;77.80;;;;;;5105034;28;20137;-68
2021/06/15 05:52:05;;;;;;;13.95;4.45;;;16.30;77.70;;;;;;5099904;28;20622;-68
2021/06/15 05:54:32;;;;;;;15.68;4.40;;;16.40;77.60;;;;;;5108424;28;20088;-68
2021/06/15 05:56:58;;;;;;;13.98;3.90;;;16.40;77.20;;;;;;5108768;28;20087;-68
2021/06/15 05:59:24;;;;;;;14.68;3.78;;;16.50;77.20;;;;;;5105294;28;20641;-68
2021/06/15 06:01:50;;;;;;;11.68;3.75;;;16.50;76.60;;;;;;5105066;28;20123;-68
2021/06/15 06:04:21;;;;;;;13.40;3.67;;;16.60;76.00;;;;;;5108266;28;20092;-68
2021/06/15 06:09:31;;;;;;;12.18;3.40;;;16.60;74.50;;;;;;5104967;28;20099;-69
2021/06/15 06:11:57;;;;;;;10.23;3.75;;;16.70;74.20;;;;;;5111395;28;20095;-68
2021/06/15 06:14:23;;;;;;;10.98;3.47;;;16.70;74.80;;;;;;5111054;28;20092;-69
2021/06/15 06:16:49;;;;;;;12.32;3.00;;;16.70;72.90;;;;;;5107287;28;20122;-68
2021/06/15 06:19:15;;;;;;;12.50;3.67;;;17.00;72.30;;;;;;5103291;27;20096;-68
2021/06/15 06:21:44;;;;;;;8.27;3.15;;;16.70;72.80;;;;;;5109681;28;20682;-67
2021/06/15 06:24:11;;;;;;;10.77;3.15;;;16.70;72.60;;;;;;5094190;28;20438;-69
2021/06/15 06:26:38;;;;;;;11.77;2.90;;;16.70;72.60;;;;;;5102954;28;20096;-72
2021/06/15 06:29:04;;;;;;;8.60;3.22;;;16.70;72.30;;;;;;5109913;28;20149;-68
2021/06/15 06:31:30;;;;;;;9.60;3.05;;;16.70;72.10;;;;;;5107572;28;20123;-69
2021/06/15 06:33:56;;;;;;;14.23;3.10;;;17.10;72.00;;;;;;5109569;28;20084;-67
2021/06/15 06:36:22;;;;;;;12.45;2.97;;;16.70;70.40;;;;;;5112293;28;20175;-69
2021/06/15 06:38:49;;;;;;;12.82;4.05;;;16.70;71.40;;;;;;5102863;28;20096;-67
2021/06/15 06:41:16;;;;;;;12.35;3.25;;;16.60;71.50;;;;;;5107735;28;20107;-69
2021/06/15 06:43:42;;;;;;;13.48;4.25;;;16.60;71.20;;;;;;5111983;28;20084;-68
2021/06/15 06:46:08;;;;;;;8.98;3.10;;;16.70;71.30;;;;;;5102567;28;20179;-68
2021/06/15 06:48:34;;;;;;;8.23;2.80;;;16.00;70.70;;;;;;5102306;28;20159;-68
2021/06/15 06:51:00;;;;;;;14.05;3.83;;;16.70;71.50;;;;;;5108278;28;20095;-68
2021/06/15 06:53:26;;;;;;;10.85;3.53;;;16.80;70.90;;;;;;5109898;28;20091;-69
2021/06/15 06:55:53;;;;;;;16.05;3.65;;;16.80;71.50;;;;;;5110366;28;20092;-69
2021/06/15 06:58:18;;;;;;;10.95;3.40;;;16.90;71.70;;;;;;5106963;28;20123;-68
2021/06/15 07:00:44;;;;;;;10.43;3.65;;;16.90;71.10;;;;;;5105364;28;20142;-68
2021/06/15 07:03:10;;;;;;;9.13;3.20;;;17.00;70.40;;;;;;5098281;28;20143;-67
2021/06/15 07:05:36;;;;;;;16.20;3.72;;;17.00;71.20;;;;;;5107467;28;20088;-68
2021/06/15 07:08:02;;;;;;;13.75;4.15;;;17.00;69.90;;;;;;5109282;28;20092;-69
2021/06/15 07:10:29;;;;;;;10.50;3.15;;;17.10;69.60;;;;;;5111183;28;20099;-68
2021/06/15 07:12:55;;;;;;;9.02;4.18;;;17.20;70.30;;;;;;5100632;28;20095;-67
2021/06/15 07:15:21;;;;;;;10.00;3.70;;;19.00;69.80;;;;;;5100592;28;20076;-68
2021/06/15 07:17:47;;;;;;;8.75;3.30;;;17.30;69.60;;;;;;5106958;28;20092;-68
2021/06/15 07:20:14;;;;;;;12.13;3.35;;;16.80;66.90;;;;;;5100407;28;20085;-68
2021/06/15 07:22:41;;;;;;;10.80;3.35;;;17.40;68.70;;;;;;5100956;28;20096;-69
2021/06/15 07:25:07;;;;;;;11.32;3.50;;;17.70;68.60;;;;;;5109945;28;20452;-69
2021/06/15 07:27:53;;;;;;;11.18;3.30;;;18.50;66.70;;;;;;5103127;28;20149;-69
2021/06/15 07:30:20;;;;;;;11.07;3.70;;;19.50;64.80;;;;;;5091647;28;20141;-69
2021/06/15 07:33:06;;;;;;;10.68;3.60;;;21.30;57.00;;;;;;5095390;28;20095;-69
2021/06/15 07:35:52;;;;;;;8.73;3.25;;;21.30;60.00;;;;;;5095905;28;20119;-70
2021/06/15 07:38:38;;;;;;;14.98;4.00;;;22.10;55.60;;;;;;5103537;27;20266;-69
2021/06/15 07:41:04;;;;;;;8.82;3.38;;;22.80;55.10;;;;;;5108164;28;20096;-69
2021/06/15 07:43:32;;;;;;;9.73;3.50;;;23.40;52.90;;;;;;5110593;28;20096;-67
2021/06/15 07:46:18;;;;;;;10.65;3.85;;;23.90;50.70;;;;;;5108532;28;20092;-70
2021/06/15 07:49:04;;;;;;;11.88;4.10;;;24.30;47.20;;;;;;5091678;28;20175;-70
2021/06/15 07:51:35;;;;;;;13.10;4.00;;;24.10;46.40;;;;;;5108221;28;20995;-68
2021/06/15 07:54:21;;;;;;;9.68;3.58;;;23.60;46.50;;;;;;5082508;28;20111;-69
2021/06/15 07:57:10;;;;;;;10.95;3.58;;;22.60;48.00;;;;;;5094688;28;20096;-69
2021/06/15 07:59:56;;;;;;;9.80;2.90;;;22.60;49.30;;;;;;5106316;28;20177;-68
2021/06/15 08:02:46;;;;;;;7.45;3.30;;;22.30;49.20;;;;;;5109252;28;20131;-68
2021/06/15 08:05:32;;;;;;;8.38;3.17;;;21.80;50.10;;;;;;5099506;28;20096;-70
2021/06/15 08:08:00;;;;;;;11.38;3.40;;;21.50;52.40;;;;;;5100719;28;20538;-69
2021/06/15 08:10:46;;;;;;;9.63;3.55;;;21.50;51.50;;;;;;5087744;28;20096;-69
2021/06/15 08:13:12;;;;;;;11.88;4.10;;;21.20;52.70;;;;;;5108681;28;20103;-68
2021/06/15 08:15:38;;;;;;;12.93;4.25;;;21.20;53.10;;;;;;5109905;28;20098;-69
2021/06/15 08:18:14;;;;;;;10.07;3.30;;;21.20;53.70;;;;;;5105691;28;20090;-68
2021/06/15 08:20:41;;;;;;;12.55;3.85;;;21.30;54.20;;;;;;5104464;28;20116;-69
2021/06/15 08:23:08;;;;;;;12.65;3.83;;;21.70;53.60;;;;;;5108658;28;20102;-68
2021/06/15 08:25:55;;;;;;;9.77;3.90;;;22.40;53.00;;;;;;5105339;28;20099;-69
2021/06/15 08:28:22;;;;;;;9.25;3.53;;;23.10;50.10;;;;;;5104720;28;20096;-71
2021/06/15 08:31:08;;;;;;;9.45;3.53;;;23.30;49.60;;;;;;5101525;28;20098;-68
2021/06/15 08:33:34;;;;;;;11.25;3.92;;;23.30;49.90;;;;;;5108179;28;20114;-66
2021/06/15 08:36:00;;;;;;;12.45;3.25;;;23.60;49.20;;;;;;5108995;27;20091;-68
2021/06/15 08:38:46;;;;;;;8.18;3.60;;;24.20;48.80;;;;;;5107350;28;20617;-67
2021/06/15 08:41:12;;;;;;;11.05;3.50;;;24.70;45.40;;;;;;5108032;28;20135;-68
2021/06/15 08:43:37;;;;;;;8.95;3.63;;;24.80;43.70;;;;;;5106630;28;20123;-68
2021/06/15 08:46:04;;;;;;;10.07;3.35;;;24.60;45.00;;;;;;5108879;28;20085;-67
2021/06/15 08:48:34;;;;;;;9.90;3.58;;;25.00;45.50;;;;;;5103553;28;20922;-67
2021/06/15 08:51:00;;;;;;;8.93;3.33;;;25.30;43.50;;;;;;5109215;28;20084;-69
2021/06/15 08:53:26;;;;;;;10.43;3.40;;;25.20;41.40;;;;;;5104968;28;20129;-70
2021/06/15 08:55:59;;;;;;;9.43;3.28;;;25.10;40.40;;;;;;5106951;28;20084;-68
2021/06/15 08:58:45;;;;;;;9.10;3.42;;;25.10;41.80;;;;;;5107909;28;20085;-70
2021/06/15 09:01:12;;;;;;;9.73;3.20;;;24.40;42.70;;;;;;5106893;28;20588;-69
2021/06/15 09:03:39;;;;;;;9.05;3.47;;;24.00;44.40;;;;;;5103763;28;20181;-67
2021/06/15 09:06:05;;;;;;;11.07;3.92;;;24.00;44.90;;;;;;5108522;28;20084;-67
2021/06/15 09:08:31;;;;;;;7.68;3.08;;;24.20;43.50;;;;;;5108643;28;20138;-69
2021/06/15 09:11:03;;;;;;;8.32;3.00;;;24.50;44.20;;;;;;5109107;28;20111;-69
2021/06/15 09:13:33;;;;;;;12.63;3.13;;;24.90;43.70;;;;;;5103927;28;20571;-69
2021/06/15 09:15:59;;;;;;;9.35;3.10;;;24.60;42.00;;;;;;5106363;28;20092;-68
2021/06/15 09:18:28;;;;;;;9.02;3.20;;;24.20;42.60;;;;;;5103833;28;20091;-70
2021/06/15 09:21:01;;;;;;;7.25;3.15;;;23.80;43.70;;;;;;5098932;28;20190;-68
2021/06/15 09:23:34;;;;;;;7.55;3.10;;;24.00;43.10;;;;;;5106210;28;20096;-68
2021/06/15 09:26:01;;;;;;;8.77;3.38;;;24.00;44.20;;;;;;5105458;28;20099;-69
2021/06/15 09:28:27;;;;;;;11.93;3.58;;;24.10;44.00;;;;;;5102269;28;20508;-69
2021/06/15 09:30:56;;;;;;;11.05;3.20;;;24.00;43.20;;;;;;5110009;28;20119;-70
2021/06/15 09:33:42;;;;;;;10.77;3.47;;;24.20;43.60;;;;;;5110077;28;20567;-70
2021/06/15 09:36:14;;;;;;;9.95;3.67;;;23.40;43.10;;;;;;5105869;28;20088;-70
2021/06/15 09:39:01;;;;;;;9.02;2.97;;;23.10;44.20;;;;;;5108993;28;20084;-67
2021/06/15 09:41:36;;;;;;;9.65;3.53;;;22.90;44.30;;;;;;5089840;28;20107;-68
2021/06/15 09:44:18;;;;;;;11.75;3.17;;;23.00;45.90;;;;;;5099114;28;20099;-67
2021/06/15 09:46:46;;;;;;;8.30;3.13;;;24.50;45.00;;;;;;5109726;28;20088;-70
2021/06/15 09:49:13;;;;;;;8.77;3.17;;;23.60;45.40;;;;;;5109317;28;20171;-69
2021/06/15 09:51:42;;;;;;;12.10;3.13;;;24.00;43.20;;;;;;5108758;28;20558;-68
2021/06/15 09:54:08;;;;;;;11.55;3.35;;;24.20;41.00;;;;;;5110762;28;20103;-68
2021/06/15 09:56:41;;;;;;;9.35;3.00;;;24.30;43.30;;;;;;5111360;28;20087;-67
2021/06/15 09:59:06;;;;;;;10.30;3.60;;;24.70;42.70;;;;;;5110697;28;20091;-69
2021/06/15 10:01:33;;;;;;;10.30;3.60;;;25.00;41.60;;;;;;5110043;28;20807;-68
2021/06/15 10:04:19;;;;;;;9.93;2.88;;;25.30;40.90;;;;;;5107171;28;20131;-67
2021/06/15 10:06:46;;;;;;;9.40;3.30;;;25.50;40.10;;;;;;5110334;28;20088;-67
2021/06/15 10:09:12;;;;;;;9.55;3.65;;;25.60;40.80;;;;;;5109482;28;20571;-66
2021/06/15 10:11:38;;;;;;;11.90;3.20;;;25.70;40.30;;;;;;5111412;28;20134;-68
2021/06/15 10:14:04;;;;;;;10.10;3.20;;;25.70;39.50;;;;;;5105254;28;20547;-68
2021/06/15 10:16:31;;;;;;;7.85;3.08;;;25.70;40.20;;;;;;5110147;28;20713;-67
2021/06/15 10:19:01;;;;;;;8.85;3.15;;;25.80;39.90;;;;;;5102809;28;20533;-67
2021/06/15 10:21:30;;;;;;;9.93;3.45;;;26.00;39.30;;;;;;5111817;28;20163;-67
2021/06/15 10:23:56;;;;;;;6.88;3.00;;;26.00;39.00;;;;;;5106108;28;20195;-68
2021/06/15 10:26:23;;;;;;;8.85;3.08;;;26.10;38.30;;;;;;5111047;28;20142;-68
2021/06/15 10:28:49;;;;;;;7.32;2.80;;;25.90;38.10;;;;;;5110349;28;20545;-69
2021/06/15 10:31:15;;;;;;;9.75;3.17;;;25.90;37.50;;;;;;5104731;28;20561;-67
2021/06/15 10:33:46;;;;;;;8.75;2.95;;;25.80;37.50;;;;;;5108858;28;20095;-68
2021/06/15 10:36:12;;;;;;;7.85;3.10;;;25.80;36.30;;;;;;5102288;28;20175;-68
2021/06/15 10:38:43;;;;;;;7.18;3.03;;;25.40;35.90;;;;;;5111437;28;20088;-69
2021/06/15 10:41:23;;;;;;;11.27;3.05;;;25.10;36.30;;;;;;5110702;28;20108;-67
2021/06/15 10:43:54;;;;;;;9.70;3.22;;;25.10;37.60;;;;;;5106842;28;20096;-67
2021/06/15 10:46:19;;;;;;;9.23;3.35;;;25.10;38.60;;;;;;5110565;28;20096;-68
2021/06/15 10:48:54;;;;;;;10.13;3.10;;;25.40;37.10;;;;;;5109046;28;20153;-67
2021/06/15 10:51:20;;;;;;;7.25;2.75;;;25.30;38.00;;;;;;5109434;28;20553;-69
2021/06/15 10:53:46;;;;;;;9.27;3.50;;;25.30;37.70;;;;;;5108520;28;20103;-69
2021/06/15 10:56:14;;;;;;;10.27;3.22;;;25.20;36.90;;;;;;5109063;28;20091;-69
2021/06/15 10:58:44;;;;;;;;;;;24.80;39.10;;;;;;5105046;28;20909;-68
2021/06/15 11:01:19;;;;;;;10.52;3.40;;;24.60;39.00;;;;;;5103000;28;20009;-68
2021/06/15 11:03:50;;;;;;;7.78;2.72;;;23.70;38.80;;;;;;5105043;28;20586;-67
2021/06/15 11:06:40;;;;;;;10.30;3.50;;;24.40;39.00;;;;;;5096770;28;20093;-69
2021/06/15 11:09:06;;;;;;;10.93;2.90;;;24.40;38.10;;;;;;5103516;28;20092;-69
2021/06/15 11:11:35;;;;;;;9.55;3.40;;;24.60;38.70;;;;;;5103931;28;20091;-69
2021/06/15 11:14:06;;;;;;;11.00;3.50;;;24.70;39.00;;;;;;5110703;28;20093;-69
2021/06/15 11:16:44;;;;;;;10.10;2.75;;;24.80;39.00;;;;;;5108013;28;20092;-69
2021/06/15 11:19:13;;;;;;;;;;;24.90;39.50;;;;;;5109654;28;20111;-69
2021/06/15 11:21:50;;;;;;;11.77;3.90;;;25.00;39.20;;;;;;5109741;27;19995;-69
2021/06/15 11:24:24;;;;;;;7.38;3.20;;;25.10;39.20;;;;;;5104718;28;20084;-69
2021/06/15 11:27:01;;;;;;;8.95;3.25;;;25.20;38.80;;;;;;5105501;28;20102;-67
2021/06/15 11:29:37;;;;;;;10.35;3.03;;;25.20;38.80;;;;;;5110818;28;20086;-69
2021/06/15 11:32:18;;;;;;;7.40;3.13;;;25.30;40.20;;;;;;5108484;28;21695;-69
2021/06/15 11:34:53;;;;;;;6.50;3.08;;;25.20;39.50;;;;;;5108556;28;20096;-67
2021/06/15 11:37:22;;;;;;;11.07;4.07;;;25.50;40.00;;;;;;5105720;27;20083;-68
2021/06/15 11:39:48;;;;;;;;;;;25.60;39.10;;;;;;5108460;28;20129;-69
2021/06/15 11:42:28;;;;;;;8.57;2.95;;;25.30;38.70;;;;;;5109222;28;20062;-69
2021/06/15 11:45:05;;;;;;;10.07;2.75;;;25.70;38.60;;;;;;5103033;28;20088;-69
2021/06/15 11:47:41;;;;;;;7.70;3.00;;;25.70;37.70;;;;;;5104763;28;20156;-68
2021/06/15 11:50:16;;;;;;;8.52;2.95;;;25.80;37.40;;;;;;5106633;28;20116;-71
2021/06/15 11:53:03;;;;;;;8.18;2.97;;;25.80;35.20;;;;;;5108223;28;20610;-69
2021/06/15 11:55:37;;;;;;;7.40;3.20;;;25.70;37.50;;;;;;5101199;28;20107;-69
2021/06/15 11:58:13;;;;;;;8.93;3.33;;;25.80;38.10;;;;;;5107852;28;20084;-69
2021/06/15 12:00:43;;;;;;;7.38;3.40;;;25.80;39.20;;;;;;5103482;28;20163;-68
2021/06/15 12:03:14;;;;;;;13.93;3.42;;;26.10;38.40;;;;;;5104112;28;20457;-68
2021/06/15 12:05:42;;;;;;;11.43;3.47;;;26.10;38.30;;;;;;5098058;28;20111;-69
2021/06/15 12:08:09;;;;;;;7.70;3.40;;;25.70;35.60;;;;;;5102345;28;20084;-69
2021/06/15 12:10:35;;;;;;;9.85;2.80;;;26.10;37.20;;;;;;5108617;28;20080;-69
2021/06/15 12:13:07;;;;;;;9.15;3.45;;;26.10;36.20;;;;;;5109151;28;20095;-68
2021/06/15 12:16:15;;;;;;;7.35;2.90;;;26.00;35.40;;;;;;5107488;28;20129;-69
2021/06/15 12:18:49;;;;;;;10.18;3.33;;;25.80;36.90;;;;;;5102219;28;20576;-68
2021/06/15 12:21:23;;;;;;;11.05;3.63;;;25.90;37.60;;;;;;5100415;28;20530;-68
2021/06/15 12:23:52;;;;;;;7.78;2.90;;;26.00;35.90;;;;;;5106440;28;20491;-70
2021/06/15 12:26:40;;;;;;;;;;;26.10;36.60;;;;;;5103212;28;20080;-69
2021/06/15 12:29:09;;;;;;;6.05;2.85;;;26.20;37.80;;;;;;5105651;28;19983;-70
2021/06/15 12:31:37;;;;;;;7.78;3.10;;;26.40;36.80;;;;;;5102768;28;20080;-69
2021/06/15 12:34:05;;;;;;;8.05;2.92;;;26.50;36.20;;;;;;5110313;28;20092;-69
2021/06/15 12:36:37;;;;;;;6.38;2.55;;;26.50;35.10;;;;;;5102219;28;20616;-70
2021/06/15 12:39:13;;;;;;;9.60;3.20;;;26.40;35.10;;;;;;5108234;28;20505;-69
2021/06/15 12:41:44;;;;;;;7.15;3.00;;;26.50;35.10;;;;;;5103807;28;20091;-70
2021/06/15 12:44:11;;;;;;;13.30;6.80;;;26.50;35.00;;;;;;5110025;28;20103;-70
2021/06/15 12:46:38;;;;;;;7.15;3.17;;;25.80;35.40;;;;;;5093263;28;20099;-68
2021/06/15 12:49:15;;;;;;;8.77;3.00;;;26.60;35.90;;;;;;5109832;28;20149;-69
2021/06/15 12:51:47;;;;;;;8.60;2.70;;;26.70;34.50;;;;;;5105261;28;20183;-70
2021/06/15 12:54:18;;;;;;;12.18;3.35;;;26.70;35.10;;;;;;5096842;28;20095;-69
2021/06/15 12:56:54;;;;;;;8.05;2.90;;;26.40;35.20;;;;;;5102122;28;20171;-69
2021/06/15 12:59:19;;;;;;;10.90;2.80;;;26.70;36.60;;;;;;5100272;28;20088;-68
2021/06/15 13:01:45;;;;;;;9.80;2.92;;;26.70;36.00;;;;;;5101769;28;20450;-68
2021/06/15 13:04:23;;;;;;;8.23;3.42;;;26.80;36.60;;;;;;5113483;27;20207;-69
2021/06/15 13:06:51;;;;;;;6.33;2.73;;;27.00;35.30;;;;;;5105849;28;20106;-68